Time;durP1;ratioP1;P1;durP2;ratioP2;P2;SDS_P1;SDS_P2;PMS_P1;PMS_P2;Temp;Humidity;BMP_temperature;BMP_pressure;BME280_temperature;BME280_humidity;BME280_pressure;Samples;Min_cycle;Max_cycle;Signal;HPM_P1;HPM_P2
2022/06/21 00:02:14;;;;;;;3.25;1.30;;;;;;;-147.11;100.00;61570.13;4998835;28;20026;-52
2022/06/21 00:04:39;;;;;;;2.97;1.37;;;;;;;-147.11;100.00;61570.13;4999040;28;20098;-52
2022/06/21 00:07:06;;;;;;;1.55;1.27;;;;;;;-147.11;100.00;61570.13;4993040;28;20038;-53
2022/06/21 00:09:32;;;;;;;2.58;1.50;;;;;;;-147.11;100.00;61570.13;4989520;28;20046;-50
2022/06/21 00:11:58;;;;;;;3.40;1.40;;;;;;;-147.11;100.00;61570.13;4995645;28;20034;-52
2022/06/21 00:14:23;;;;;;;2.80;1.55;;;;;;;-147.11;100.00;61570.13;4995648;28;20030;-52
2022/06/21 00:16:48;;;;;;;3.15;1.70;;;;;;;-147.11;100.00;61570.13;4991750;28;20049;-54
2022/06/21 00:19:19;;;;;;;2.33;1.60;;;;;;;-147.11;100.00;61570.13;4993884;28;20061;-51
2022/06/21 00:21:46;;;;;;;2.53;1.30;;;;;;;-147.11;100.00;61570.13;4998330;28;20030;-50
2022/06/21 00:24:13;;;;;;;2.78;1.85;;;;;;;-147.11;100.00;61570.13;4989225;28;20042;-52
2022/06/21 00:26:39;;;;;;;3.80;1.50;;;;;;;-147.11;100.00;61570.13;4984008;28;20093;-52
2022/06/21 00:29:04;;;;;;;2.28;1.80;;;;;;;-147.11;100.00;61570.13;4994551;28;20026;-52
2022/06/21 00:31:32;;;;;;;3.28;1.70;;;;;;;-147.11;100.00;61570.13;4991889;28;20046;-50
2022/06/21 00:34:27;;;;;;;2.63;1.50;;;;;;;-147.11;100.00;61570.13;4990155;28;20386;-51
2022/06/21 00:36:52;;;;;;;4.47;1.60;;;;;;;-147.11;100.00;61570.13;4992252;28;20034;-53
2022/06/21 00:39:19;;;;;;;2.42;1.60;;;;;;;-147.11;100.00;61570.13;4990350;28;20038;-52
2022/06/21 00:42:13;;;;;;;2.63;1.58;;;;;;;-147.11;100.00;61570.13;4988838;28;20021;-51
2022/06/21 00:44:43;;;;;;;1.73;1.48;;;;;;;-147.11;100.00;61570.13;4996446;28;20042;-54
2022/06/21 00:47:22;;;;;;;3.63;1.80;;;;;;;-147.11;100.00;61570.13;4995280;28;20105;-49
2022/06/21 00:49:52;;;;;;;1.88;1.60;;;;;;;-147.11;100.00;61570.13;5007614;28;20066;-50
2022/06/21 00:52:20;;;;;;;;;;;;;;;-147.11;100.00;61570.13;4993122;28;20135;-49
2022/06/21 00:55:04;;;;;;;5.05;1.65;;;;;;;-147.11;100.00;61570.13;4996856;28;19920;-50
2022/06/21 00:57:39;;;;;;;4.55;1.60;;;;;;;-147.11;100.00;61570.13;4997069;28;20058;-50
2022/06/21 01:00:23;;;;;;;2.45;1.75;;;;;;;-147.11;100.00;61570.13;4990428;28;20049;-51
2022/06/21 01:02:49;;;;;;;2.70;1.63;;;;;;;-147.11;100.00;61570.13;4997275;28;20053;-54
2022/06/21 01:05:14;;;;;;;2.25;1.60;;;;;;;-147.11;100.00;61570.13;4982924;28;20475;-51
2022/06/21 01:07:41;;;;;;;4.72;1.60;;;;;;;-147.11;100.00;61570.13;4991771;28;20081;-52
2022/06/21 01:10:12;;;;;;;3.35;1.60;;;;;;;-147.11;100.00;61570.13;4993500;28;20041;-53
2022/06/21 01:13:15;;;;;;;4.40;1.73;;;;;;;-147.11;100.00;61570.13;4988383;28;20065;-49
2022/06/21 01:15:44;;;;;;;2.53;1.60;;;;;;;-147.11;100.00;61570.13;4981464;28;20056;-50
2022/06/21 01:18:12;;;;;;;3.15;1.60;;;;;;;-147.11;100.00;61570.13;4991647;28;20027;-53
2022/06/21 01:20:43;;;;;;;3.70;1.55;;;;;;;-147.11;100.00;61570.13;4996685;28;20442;-50
2022/06/21 01:23:21;;;;;;;3.10;2.25;;;;;;;-147.11;100.00;61570.13;4992930;28;20030;-51
2022/06/21 01:26:03;;;;;;;2.67;1.63;;;;;;;-147.11;100.00;61570.13;4995707;28;20081;-50
2022/06/21 01:28:28;;;;;;;1.98;1.67;;;;;;;-147.11;100.00;61570.13;4988800;28;20058;-50
2022/06/21 01:30:56;;;;;;;2.92;1.73;;;;;;;-147.11;100.00;61570.13;4990500;28;20034;-54
2022/06/21 01:33:29;;;;;;;5.25;1.80;;;;;;;-147.11;100.00;61570.13;4998541;28;20026;-52
2022/06/21 01:35:56;;;;;;;3.08;1.55;;;;;;;-147.11;100.00;61570.13;4992249;28;20083;-52
2022/06/21 01:38:31;;;;;;;4.43;1.70;;;;;;;-147.11;100.00;61570.13;5002804;28;20026;-51
2022/06/21 01:41:08;;;;;;;1.77;1.40;;;;;;;-147.11;100.00;61570.13;4992707;28;20155;-52
2022/06/21 01:43:37;;;;;;;3.65;1.40;;;;;;;-147.11;100.00;61570.13;4987297;28;20034;-50
2022/06/21 01:46:07;;;;;;;2.53;1.77;;;;;;;-147.11;100.00;61570.13;4992840;28;20031;-52
2022/06/21 01:48:41;;;;;;;2.25;1.80;;;;;;;-147.11;100.00;61570.13;4995089;28;20042;-50
2022/06/21 01:51:11;;;;;;;3.85;1.45;;;;;;;-147.11;100.00;61570.13;4982085;28;20109;-52
2022/06/21 01:53:39;;;;;;;2.53;1.70;;;;;;;-147.11;100.00;61570.13;4992867;28;20078;-52
2022/06/21 01:56:17;;;;;;;3.25;1.70;;;;;;;-147.11;100.00;61570.13;4992039;28;20045;-52
2022/06/21 01:58:56;;;;;;;2.63;1.80;;;;;;;-147.11;100.00;61570.13;4994146;28;20057;-56
2022/06/21 02:01:43;;;;;;;3.25;1.55;;;;;;;-147.11;100.00;61570.13;4983828;28;20041;-51
2022/06/21 02:04:10;;;;;;;2.75;1.67;;;;;;;-147.11;100.00;61570.13;4986704;28;20069;-51
2022/06/21 02:06:41;;;;;;;2.47;1.73;;;;;;;-147.11;100.00;61570.13;4992543;28;20138;-50
2022/06/21 02:09:17;;;;;;;2.10;1.70;;;;;;;-147.11;100.00;61570.13;4995463;28;20042;-50
2022/06/21 02:11:48;;;;;;;2.20;1.70;;;;;;;-147.11;100.00;61570.13;4990264;28;20026;-52
2022/06/21 02:14:30;;;;;;;3.42;1.60;;;;;;;-147.11;100.00;61570.13;4980760;28;20532;-49
2022/06/21 02:17:10;;;;;;;3.00;1.90;;;;;;;-147.11;100.00;61570.13;4985281;28;20074;-49
2022/06/21 02:19:46;;;;;;;2.40;1.90;;;;;;;-147.11;100.00;61570.13;4984293;28;20084;-50
2022/06/21 02:22:25;;;;;;;2.72;1.70;;;;;;;-147.11;100.00;61570.13;4975375;28;20130;-49
2022/06/21 02:24:52;;;;;;;3.28;1.80;;;;;;;-147.11;100.00;61570.13;4976129;28;20053;-50
2022/06/21 02:27:23;;;;;;;3.10;2.10;;;;;;;-147.11;100.00;61570.13;4983113;28;20026;-49
2022/06/21 02:29:55;;;;;;;2.78;1.73;;;;;;;-147.11;100.00;61570.13;4971930;28;20126;-49
2022/06/21 02:32:47;;;;;;;3.08;1.83;;;;;;;-147.11;100.00;61570.13;4983138;28;20045;-49
2022/06/21 02:35:29;;;;;;;2.60;1.90;;;;;;;-147.11;100.00;61570.13;4981790;28;20042;-49
2022/06/21 02:37:59;;;;;;;2.42;1.77;;;;;;;-147.11;100.00;61570.13;4984967;28;20038;-49
2022/06/21 02:40:35;;;;;;;3.80;1.90;;;;;;;-147.11;100.00;61570.13;4991270;28;20038;-49
2022/06/21 02:43:05;;;;;;;4.57;2.08;;;;;;;-147.11;100.00;61570.13;4975445;28;20022;-49
2022/06/21 02:45:59;;;;;;;2.85;1.90;;;;;;;-147.11;100.00;61570.13;4983804;28;20030;-49
2022/06/21 02:48:28;;;;;;;2.40;1.92;;;;;;;-147.11;100.00;61570.13;4972148;28;20033;-52
2022/06/21 02:51:08;;;;;;;2.88;1.77;;;;;;;-147.11;100.00;61570.13;4992978;28;20032;-50
2022/06/21 02:53:48;;;;;;;2.80;2.00;;;;;;;-147.11;100.00;61570.13;4973580;28;20030;-49
2022/06/21 02:56:23;;;;;;;5.28;2.35;;;;;;;-147.11;100.00;61570.13;4978237;28;20034;-50
2022/06/21 02:58:53;;;;;;;2.53;1.80;;;;;;;-147.11;100.00;61570.13;4979041;28;20398;-49
2022/06/21 03:01:24;;;;;;;2.15;2.00;;;;;;;-147.11;100.00;61570.13;4980513;28;20364;-51
2022/06/21 03:03:50;;;;;;;4.53;2.00;;;;;;;-147.11;100.00;61570.13;4974703;28;20027;-51
2022/06/21 03:06:19;;;;;;;6.13;2.67;;;;;;;-147.11;100.00;61570.13;4987024;28;20489;-49
2022/06/21 03:08:56;;;;;;;6.53;2.15;;;;;;;-147.11;100.00;61570.13;4977408;28;20066;-51
2022/06/21 03:11:27;;;;;;;3.35;2.10;;;;;;;-147.11;100.00;61570.13;4976712;28;20027;-50
2022/06/21 03:13:52;;;;;;;3.30;2.03;;;;;;;-147.11;100.00;61570.13;4981373;28;20038;-52
2022/06/21 03:16:18;;;;;;;5.22;2.45;;;;;;;-147.11;100.00;61570.13;4982677;28;20018;-52
2022/06/21 03:18:58;;;;;;;3.38;2.45;;;;;;;-147.11;100.00;61570.13;4969154;28;20106;-52
2022/06/21 03:21:32;;;;;;;4.07;2.60;;;;;;;-147.11;100.00;61570.13;4982072;28;20542;-49
2022/06/21 03:23:58;;;;;;;;;;;;;;;-147.11;100.00;61570.13;4971794;28;20617;-51
2022/06/21 03:26:26;;;;;;;;;;;;;;;-147.11;100.00;61570.13;4979206;28;20477;-50
2022/06/21 03:28:52;;;;;;;;;;;;;;;-147.11;100.00;61570.13;4980882;28;19921;-49
2022/06/21 03:31:30;;;;;;;;;;;;;;;-147.11;100.00;61570.13;4979921;28;19965;-52
2022/06/21 03:34:05;;;;;;;;;;;;;;;-147.11;100.00;61570.13;4988317;28;19967;-53
2022/06/21 03:36:31;;;;;;;;;;;;;;;-147.11;100.00;61570.13;4988009;28;20016;-52
2022/06/21 03:39:04;;;;;;;;;;;;;;;-147.11;100.00;61570.13;4990078;28;19921;-53
2022/06/21 03:41:45;;;;;;;;;;;;;;;-147.11;100.00;61570.13;4981749;28;19940;-49
2022/06/21 03:44:13;;;;;;;;;;;;;;;-147.11;100.00;61570.13;4978044;28;19922;-53
2022/06/21 03:46:45;;;;;;;;;;;;;;;-147.11;100.00;61570.13;4976925;28;20011;-51
2022/06/21 03:49:17;;;;;;;;;;;;;;;-147.11;100.00;61570.13;4986344;28;19921;-51
2022/06/21 03:51:46;;;;;;;;;;;;;;;-147.11;100.00;61570.13;4980297;28;19959;-50
2022/06/21 03:54:27;;;;;;;;;;;;;;;-147.11;100.00;61570.13;4978344;28;19936;-51
2022/06/21 03:56:59;;;;;;;;;;;;;;;-147.11;100.00;61570.13;4975925;28;20024;-50
2022/06/21 03:59:51;;;;;;;;;;;;;;;-147.11;100.00;61570.13;4978558;28;19949;-52
2022/06/21 04:02:22;;;;;;;;;;;;;;;-147.11;100.00;61570.13;4981139;28;19913;-49
2022/06/21 04:05:01;;;;;;;;;;;;;;;-147.11;100.00;61570.13;4980578;28;20372;-54
2022/06/21 04:07:32;;;;;;;;;;;;;;;-147.11;100.00;61570.13;4985817;28;19913;-51
2022/06/21 04:10:12;;;;;;;;;;;;;;;-147.11;100.00;61570.13;4973416;28;21096;-51
2022/06/21 04:12:44;;;;;;;;;;;;;;;-147.11;100.00;61570.13;4984146;28;19943;-50
2022/06/21 04:15:15;;;;;;;;;;;;;;;-147.11;100.00;61570.13;4981664;28;19924;-52
2022/06/21 04:17:56;;;;;;;;;;;;;;;-147.11;100.00;61570.13;4988058;28;20008;-51
2022/06/21 04:20:21;;;;;;;;;;;;;;;-147.11;100.00;61570.13;4979137;28;20013;-53
2022/06/21 04:22:53;;;;;;;;;;;;;;;-147.11;100.00;61570.13;4980111;28;20084;-54
2022/06/21 04:25:30;;;;;;;;;;;;;;;-147.11;100.00;61570.13;4987021;28;19960;-52
2022/06/21 04:28:02;;;;;;;;;;;;;;;-147.11;100.00;61570.13;4986217;28;19976;-52
2022/06/21 04:30:33;;;;;;;;;;;;;;;-147.11;100.00;61570.13;4987087;28;19940;-50
2022/06/21 04:33:06;;;;;;;;;;;;;;;-147.11;100.00;61570.13;4981514;28;19944;-50
2022/06/21 04:35:58;;;;;;;;;;;;;;;-147.11;100.00;61570.13;4986717;28;19921;-52
2022/06/21 04:38:27;;;;;;;;;;;;;;;-147.11;100.00;61570.13;4982634;28;19928;-52
2022/06/21 04:40:56;;;;;;;;;;;;;;;-147.11;100.00;61570.13;4988758;28;19921;-51
2022/06/21 04:43:28;;;;;;;;;;;;;;;-147.11;100.00;61570.13;4988167;28;20304;-51
2022/06/21 04:46:05;;;;;;;;;;;;;;;-147.11;100.00;61570.13;4989610;28;19917;-52
2022/06/21 04:48:31;;;;;;;;;;;;;;;-147.11;100.00;61570.13;4990668;28;19913;-49
2022/06/21 04:51:14;;;;;;;;;;;;;;;-147.11;100.00;61570.13;4980156;28;19917;-52
2022/06/21 04:53:46;;;;;;;;;;;;;;;-147.11;100.00;61570.13;4982917;28;19928;-49
2022/06/21 04:56:23;;;;;;;;;;;;;;;-147.11;100.00;61570.13;4977732;28;19918;-50
2022/06/21 04:58:50;;;;;;;;;;;;;;;-147.11;100.00;61570.13;4994153;28;19921;-50
2022/06/21 05:01:32;;;;;;;;;;;;;;;-147.11;100.00;61570.13;4984377;28;20297;-51
2022/06/21 05:04:00;;;;;;;;;;;;;;;-147.11;100.00;61570.13;4986123;28;19921;-49
2022/06/21 05:06:25;;;;;;;;;;;;;;;-147.11;100.00;61570.13;4983205;28;20448;-51
2022/06/21 05:08:51;;;;;;;;;;;;;;;-147.11;100.00;61570.13;4983794;28;20012;-49
2022/06/21 05:11:17;;;;;;;;;;;;;;;-147.11;100.00;61570.13;4985496;28;20298;-51
2022/06/21 05:13:50;;;;;;;;;;;;;;;-147.11;100.00;61570.13;4989185;28;19925;-49
2022/06/21 05:16:18;;;;;;;;;;;;;;;-147.11;100.00;61570.13;4988138;28;19960;-49
2022/06/21 05:18:45;;;;;;;;;;;;;;;-147.11;100.00;61570.13;4975050;28;19957;-49
2022/06/21 05:21:13;;;;;;;;;;;;;;;-147.11;100.00;61570.13;4972358;28;19925;-49
2022/06/21 05:23:38;;;;;;;;;;;;;;;-147.11;100.00;61570.13;4975413;28;19914;-48
2022/06/21 05:26:17;;;;;;;;;;;;;;;-147.11;100.00;61570.13;4976816;28;20340;-50
2022/06/21 05:28:52;;;;;;;;;;;;;;;-147.11;100.00;61570.13;4977494;28;20341;-50
2022/06/21 05:31:23;;;;;;;;;;;;;;;-147.11;100.00;61570.13;4973238;28;19948;-49
2022/06/21 05:34:01;;;;;;;;;;;;;;;-147.11;100.00;61570.13;4974853;28;19968;-49
2022/06/21 05:36:38;;;;;;;;;;;;;;;-147.11;100.00;61570.13;4981385;28;21560;-51
2022/06/21 05:39:07;;;;;;;;;;;;;;;-147.11;100.00;61570.13;4978256;28;20432;-50
2022/06/21 05:41:41;;;;;;;;;;;;;;;-147.11;100.00;61570.13;4980694;28;20404;-50
2022/06/21 05:44:12;;;;;;;;;;;;;;;-147.11;100.00;61570.13;4974787;28;19960;-48
2022/06/21 05:46:41;;;;;;;;;;;;;;;-147.11;100.00;61570.13;4976491;28;19924;-48
2022/06/21 05:49:15;;;;;;;;;;;;;;;-147.11;100.00;61570.13;4974555;28;20497;-51
2022/06/21 05:51:40;;;;;;;;;;;;;;;-147.11;100.00;61570.13;4981177;28;20737;-50
2022/06/21 05:54:11;;;;;;;;;;;;;;;-147.11;100.00;61570.13;4982212;28;20392;-51
2022/06/21 05:56:37;;;;;;;;;;;;;;;-147.11;100.00;61570.13;4983965;28;19917;-51
2022/06/21 05:59:04;;;;;;;;;;;;;;;-147.11;100.00;61570.13;4988678;28;19973;-48
2022/06/21 06:01:29;;;;;;;;;;;;;;;-147.11;100.00;61570.13;4985636;28;19917;-48
2022/06/21 06:04:15;;;;;;;;;;;;;;;-147.11;100.00;61570.13;4989692;28;19917;-48
2022/06/21 06:06:42;;;;;;;;;;;;;;;-147.11;100.00;61570.13;4993568;28;19925;-48
2022/06/21 06:09:10;;;;;;;;;;;;;;;-147.11;100.00;61570.13;4990954;28;19924;-51
2022/06/21 06:12:02;;;;;;;;;;;;;;;-147.11;100.00;61570.13;4989997;28;19948;-49
2022/06/21 06:14:47;;;;;;;;;;;;;;;-147.11;100.00;61570.13;4985563;28;19921;-49
2022/06/21 06:17:20;;;;;;;;;;;;;;;-147.11;100.00;61570.13;4983547;28;19929;-48
2022/06/21 06:20:01;;;;;;;;;;;;;;;-147.11;100.00;61570.13;4988030;28;19921;-48
2022/06/21 06:22:26;;;;;;;;;;;;;;;-147.11;100.00;61570.13;4989013;28;19948;-48
2022/06/21 06:24:56;;;;;;;;;;;;;;;-147.11;100.00;61570.13;4990576;28;19957;-49
2022/06/21 06:27:35;;;;;;;;;;;;;;;-147.11;100.00;61570.13;4989141;28;19921;-49
2022/06/21 06:30:03;;;;;;;;;;;;;;;-147.11;100.00;61570.13;4991322;28;19917;-48
2022/06/21 06:32:44;;;;;;;;;;;;;;;-147.11;100.00;61570.13;4985934;28;19917;-48
2022/06/21 06:35:16;;;;;;;;;;;;;;;-147.11;100.00;61570.13;4989356;28;20459;-49
2022/06/21 06:37:42;;;;;;;;;;;;;;;-147.11;100.00;61570.13;4991329;28;19916;-49
2022/06/21 06:40:18;;;;;;;;;;;;;;;-147.11;100.00;61570.13;4984267;28;19946;-49
2022/06/21 06:42:44;;;;;;;;;;;;;;;-147.11;100.00;61570.13;5001848;28;19917;-49
2022/06/21 06:45:15;;;;;;;;;;;;;;;-147.11;100.00;61570.13;4991795;28;19913;-48
2022/06/21 06:47:44;;;;;;;;;;;;;;;-147.11;100.00;61570.13;4996535;28;20362;-50
2022/06/21 06:50:21;;;;;;;;;;;;;;;-147.11;100.00;61570.13;4983970;28;19913;-48
2022/06/21 06:53:01;;;;;;;;;;;;;;;-147.11;100.00;61570.13;4987177;28;20401;-50
2022/06/21 06:55:44;;;;;;;;;;;;;;;-147.11;100.00;61570.13;4989665;28;19921;-52
2022/06/21 06:58:19;;;;;;;;;;;;;;;-147.11;100.00;61570.13;4990131;28;20293;-54
2022/06/21 07:00:47;;;;;;;;;;;;;;;-147.11;100.00;61570.13;5000548;28;20381;-49
2022/06/21 07:03:13;;;;;;;;;;;;;;;-147.11;100.00;61570.13;4992571;28;19936;-52
2022/06/21 07:05:46;;;;;;;;;;;;;;;-147.11;100.00;61570.13;4991521;28;19972;-51
2022/06/21 07:08:20;;;;;;;;;;;;;;;-147.11;100.00;61570.13;5002437;28;19922;-53
2022/06/21 07:10:47;;;;;;;;;;;;;;;-147.11;100.00;61570.13;4997466;28;19928;-50
2022/06/21 07:13:13;;;;;;;;;;;;;;;-147.11;100.00;61570.13;4997932;28;19920;-50
2022/06/21 07:15:44;;;;;;;;;;;;;;;-147.11;100.00;61570.13;4992575;28;19930;-51
2022/06/21 07:18:21;;;;;;;;;;;;;;;-147.11;100.00;61570.13;4998054;28;19910;-53
2022/06/21 07:20:47;;;;;;;;;;;;;;;-147.11;100.00;61570.13;4992786;28;19929;-52
2022/06/21 07:23:20;;;;;;;;;;;;;;;-147.11;100.00;61570.13;4997997;28;19913;-49
2022/06/21 07:25:53;;;;;;;;;;;;;;;-147.11;100.00;61570.13;4998660;28;20393;-49
2022/06/21 07:28:25;;;;;;;;;;;;;;;-147.11;100.00;61570.13;4994357;28;19929;-51
2022/06/21 07:30:52;;;;;;;;;;;;;;;-147.11;100.00;61570.13;4997289;28;19921;-50
2022/06/21 07:33:41;;;;;;;;;;;;;;;-147.11;100.00;61570.13;4995810;28;19913;-51
2022/06/21 07:36:18;;;;;;;;;;;;;;;-147.11;100.00;61570.13;4983970;28;19963;-50
2022/06/21 07:38:55;;;;;;;;;;;;;;;-147.11;100.00;61570.13;4994611;28;19968;-49
2022/06/21 07:41:20;;;;;;;;;;;;;;;-147.11;100.00;61570.13;4993935;28;19913;-49
2022/06/21 07:43:50;;;;;;;;;;;;;;;-147.11;100.00;61570.13;4998088;28;19928;-52
2022/06/21 07:46:19;;;;;;;;;;;;;;;-147.11;100.00;61570.13;4991787;28;19969;-52
2022/06/21 07:48:44;;;;;;;;;;;;;;;-147.11;100.00;61570.13;4994699;28;20475;-50
2022/06/21 07:51:13;;;;;;;;;;;;;;;-147.11;100.00;61570.13;4994043;28;19914;-49
2022/06/21 07:53:44;;;;;;;;;;;;;;;-147.11;100.00;61570.13;5000259;28;19920;-49
2022/06/21 07:56:15;;;;;;;;;;;;;;;-147.11;100.00;61570.13;4999831;28;19918;-53
2022/06/21 07:58:50;;;;;;;;;;;;;;;-147.11;100.00;61570.13;5002717;28;20011;-52
2022/06/21 08:07:11;;;;;;;;;;;;;;;-147.11;100.00;61570.13;4996559;28;20065;-51
2022/06/21 08:09:48;;;;;;;;;;;;;;;-147.11;100.00;61570.13;4996511;28;19925;-51
2022/06/21 08:12:14;;;;;;;;;;;;;;;-147.11;100.00;61570.13;4998058;28;19921;-50
2022/06/21 08:14:40;;;;;;;;;;;;;;;-147.11;100.00;61570.13;4993466;28;19913;-51
2022/06/21 08:17:10;;;;;;;;;;;;;;;-147.11;100.00;61570.13;4998532;28;19914;-50
2022/06/21 08:19:39;;;;;;;;;;;;;;;-147.11;100.00;61570.13;4993577;28;20280;-52
2022/06/21 08:22:11;;;;;;;;;;;;;;;-147.11;100.00;61570.13;4990400;28;19917;-51
2022/06/21 08:24:57;;;;;;;;;;;;;;;-147.11;100.00;61570.13;4990930;28;19996;-50
2022/06/21 08:27:22;;;;;;;;;;;;;;;-147.11;100.00;61570.13;4983789;28;20366;-52
2022/06/21 08:29:53;;;;;;;;;;;;;;;-147.11;100.00;61570.13;4992584;28;20389;-51
2022/06/21 08:32:31;;;;;;;;;;;;;;;-147.11;100.00;61570.13;4993506;28;20301;-50
2022/06/21 08:34:59;;;;;;;;;;;;;;;-147.11;100.00;61570.13;4993933;28;19959;-50
2022/06/21 08:37:24;;;;;;;;;;;;;;;-147.11;100.00;61570.13;4988355;28;20274;-50
2022/06/21 08:40:02;;;;;;;;;;;;;;;-147.11;100.00;61570.13;4993131;28;20000;-52
2022/06/21 08:42:50;;;;;;;;;;;;;;;-147.11;100.00;61570.13;4993387;28;19922;-51
2022/06/21 08:48:02;;;;;;;;;;;;;;;-147.11;100.00;61570.13;4998582;28;19976;-50
2022/06/21 08:50:36;;;;;;;;;;;;;;;-147.11;100.00;61570.13;4994351;28;20404;-50
2022/06/21 08:53:10;;;;;;;;;;;;;;;-147.11;100.00;61570.13;4990028;28;20395;-52
2022/06/21 08:55:51;;;;;;;;;;;;;;;-147.11;100.00;61570.13;4995796;28;20385;-52
2022/06/21 08:58:22;;;;;;;;;;;;;;;-147.11;100.00;61570.13;4995804;28;19920;-51
2022/06/21 09:00:56;;;;;;;;;;;;;;;-147.11;100.00;61570.13;4994420;28;19948;-52
2022/06/21 09:03:37;;;;;;;;;;;;;;;-147.11;100.00;61570.13;4990863;28;19928;-51
2022/06/21 09:06:12;;;;;;;;;;;;;;;-147.11;100.00;61570.13;4993584;28;19961;-52
2022/06/21 09:09:10;;;;;;;;;;;;;;;-147.11;100.00;61570.13;4985308;28;20048;-52
2022/06/21 09:11:50;;;;;;;;;;;;;;;-147.11;100.00;61570.13;5000364;28;19937;-53
2022/06/21 09:14:27;;;;;;;;;;;;;;;-147.11;100.00;61570.13;4992320;28;19917;-52
2022/06/21 09:16:53;;;;;;;;;;;;;;;-147.11;100.00;61570.13;4991082;28;19936;-51
2022/06/21 09:19:28;;;;;;;;;;;;;;;-147.11;100.00;61570.13;4994525;28;20525;-53
2022/06/21 09:22:02;;;;;;;;;;;;;;;-147.11;100.00;61570.13;4984802;28;19914;-50
2022/06/21 09:24:36;;;;;;;;;;;;;;;-147.11;100.00;61570.13;4990052;28;19920;-48
2022/06/21 09:27:05;;;;;;;;;;;;;;;-147.11;100.00;61570.13;4990702;28;19918;-52
2022/06/21 09:29:33;;;;;;;;;;;;;;;-147.11;100.00;61570.13;4993702;28;19969;-50
2022/06/21 09:32:04;;;;;;;;;;;;;;;-147.11;100.00;61570.13;4994666;28;19936;-52
2022/06/21 09:34:30;;;;;;;;;;;;;;;-147.11;100.00;61570.13;4993182;28;20004;-52
2022/06/21 09:36:55;;;;;;;;;;;;;;;-147.11;100.00;61570.13;4992561;28;20000;-52
2022/06/21 09:39:20;;;;;;;;;;;;;;;-147.11;100.00;61570.13;4991448;28;19921;-50
2022/06/21 09:42:10;;;;;;;;;;;;;;;-147.11;100.00;61570.13;4995257;28;19913;-52
2022/06/21 09:44:53;;;;;;;;;;;;;;;-147.11;100.00;61570.13;4988518;28;19914;-52
2022/06/21 09:47:25;;;;;;;;;;;;;;;-147.11;100.00;61570.13;4991301;28;19924;-49
2022/06/21 09:50:12;;;;;;;;;;;;;;;-147.11;100.00;61570.13;4995679;28;20008;-50
2022/06/21 09:52:45;;;;;;;;;;;;;;;-147.11;100.00;61570.13;4993203;28;20321;-50
2022/06/21 09:55:29;;;;;;;;;;;;;;;-147.11;100.00;61570.13;4990305;28;20035;-54
2022/06/21 09:57:59;;;;;;;;;;;;;;;-147.11;100.00;61570.13;4989756;28;19920;-51
2022/06/21 10:00:44;;;;;;;;;;;;;;;-147.11;100.00;61570.13;4989953;28;19965;-52
2022/06/21 10:03:28;;;;;;;;;;;;;;;-147.11;100.00;61570.13;4992403;28;19917;-50
2022/06/21 10:05:59;;;;;;;;;;;;;;;-147.11;100.00;61570.13;4992700;28;19963;-49
2022/06/21 10:08:34;;;;;;;;;;;;;;;-147.11;100.00;61570.13;4988016;28;19914;-51
2022/06/21 10:11:18;;;;;;;;;;;;;;;-147.11;100.00;61570.13;4991638;28;19945;-52
2022/06/21 10:14:10;;;;;;;;;;;;;;;-147.11;100.00;61570.13;4990447;28;19917;-50
2022/06/21 10:16:39;;;;;;;;;;;;;;;-147.11;100.00;61570.13;4990024;28;19992;-51
2022/06/21 10:19:05;;;;;;;;;;;;;;;-147.11;100.00;61570.13;4993136;28;19924;-52
2022/06/21 10:21:49;;;;;;;;;;;;;;;-147.11;100.00;61570.13;4989207;28;19917;-50
2022/06/21 10:24:17;;;;;;;;;;;;;;;-147.11;100.00;61570.13;4990269;28;19913;-53
2022/06/21 10:26:55;;;;;;;;;;;;;;;-147.11;100.00;61570.13;4995053;28;19922;-53
2022/06/21 10:29:26;;;;;;;;;;;;;;;-147.11;100.00;61570.13;4990514;28;19917;-50
2022/06/21 10:32:00;;;;;;;;;;;;;;;-147.11;100.00;61570.13;4987701;28;20394;-53
2022/06/21 10:34:35;;;;;;;;;;;;;;;-147.11;100.00;61570.13;4988026;28;19917;-52
2022/06/21 10:37:17;;;;;;;;;;;;;;;-147.11;100.00;61570.13;4993833;28;19913;-52
2022/06/21 10:39:43;;;;;;;;;;;;;;;-147.11;100.00;61570.13;4985187;28;19914;-52
2022/06/21 10:44:52;;;;;;;;;;;;;;;-147.11;100.00;61570.13;4988778;28;19989;-53
2022/06/21 10:47:23;;;;;;;;;;;;;;;-147.11;100.00;61570.13;4993439;28;19949;-53
2022/06/21 10:49:56;;;;;;;;;;;;;;;-147.11;100.00;61570.13;4988788;28;19922;-53
2022/06/21 10:52:31;;;;;;;;;;;;;;;-147.11;100.00;61570.13;4993077;28;20436;-53
2022/06/21 10:55:05;;;;;;;;;;;;;;;-147.11;100.00;61570.13;4982540;28;19935;-53
2022/06/21 10:57:49;;;;;;;;;;;;;;;-147.11;100.00;61570.13;4989628;28;20604;-53
2022/06/21 11:03:33;;;;;;;7.53;1.50;;;;;;;-147.11;100.00;61570.13;4984152;28;20029;-50
2022/06/21 11:06:15;;;;;;;7.77;1.93;;;;;;;-147.11;100.00;61570.13;4991577;28;20410;-51
2022/06/21 11:08:47;;;;;;;10.73;2.20;;;;;;;-147.11;100.00;61570.13;4992445;28;20278;-53
2022/06/21 11:11:44;;;;;;;6.25;1.77;;;;;;;-147.11;100.00;61570.13;4986331;28;20034;-52
2022/06/21 11:14:18;;;;;;;6.25;1.38;;;;;;;-147.11;100.00;61570.13;4991527;28;20025;-50
2022/06/21 11:17:08;;;;;;;4.05;1.20;;;;;;;-147.11;100.00;61570.13;4991004;28;20047;-49
2022/06/21 11:20:04;;;;;;;7.40;1.50;;;;;;;-147.11;100.00;61570.13;4991768;28;20041;-50
2022/06/21 11:22:45;;;;;;;5.47;1.35;;;;;;;-147.11;100.00;61570.13;4990242;28;20394;-50
2022/06/21 11:25:19;;;;;;;7.35;1.50;;;;;;;-147.11;100.00;61570.13;4990586;28;20501;-52
2022/06/21 11:27:54;;;;;;;4.57;1.20;;;;;;;-147.11;100.00;61570.13;4987127;28;20045;-51
2022/06/21 11:30:45;;;;;;;3.65;1.15;;;;;;;-147.11;100.00;61570.13;4988636;28;20029;-52
2022/06/21 11:33:36;;;;;;;5.00;1.33;;;;;;;-147.11;100.00;61570.13;4984160;28;20022;-50
2022/06/21 11:36:01;;;;;;;;;;;;;;;-147.11;100.00;61570.13;4988884;28;20034;-51
2022/06/21 11:38:32;;;;;;;;;;;;;;;-147.11;100.00;61570.13;4985797;28;20313;-52
2022/06/21 11:41:02;;;;;;;;;;;;;;;-147.11;100.00;61570.13;4987662;28;19925;-52
2022/06/21 11:43:27;;;;;;;;;;;;;;;-147.11;100.00;61570.13;4990830;28;20281;-52
2022/06/21 11:46:03;;;;;;;;;;;;;;;-147.11;100.00;61570.13;4992522;28;19936;-50
2022/06/21 11:48:47;;;;;;;;;;;;;;;-147.11;100.00;61570.13;4988481;28;19953;-50
2022/06/21 11:51:22;;;;;;;;;;;;;;;-147.11;100.00;61570.13;4993859;28;19979;-51
2022/06/21 11:54:00;;;;;;;;;;;;;;;-147.11;100.00;61570.13;4987474;28;20433;-50
2022/06/21 11:56:40;;;;;;;;;;;;;;;-147.11;100.00;61570.13;4994338;28;19917;-50
2022/06/21 11:59:17;;;;;;;;;;;;;;;-147.11;100.00;61570.13;4992247;28;20331;-50
2022/06/21 12:01:44;;;;;;;;;;;;;;;-147.11;100.00;61570.13;4990897;28;19933;-50
2022/06/21 12:04:16;;;;;;;;;;;;;;;-147.11;100.00;61570.13;4990840;28;19918;-50
2022/06/21 12:06:41;;;;;;;;;;;;;;;-147.11;100.00;61570.13;4986520;28;19976;-50
2022/06/21 12:09:07;;;;;;;;;;;;;;;-147.11;100.00;61570.13;4991522;28;20337;-53
2022/06/21 12:11:41;;;;;;;;;;;;;;;-147.11;100.00;61570.13;4986139;28;19925;-52
2022/06/21 12:14:14;;;;;;;;;;;;;;;-147.11;100.00;61570.13;4982760;28;20012;-52
2022/06/21 12:16:58;;;;;;;;;;;;;;;-147.11;100.00;61570.13;4991293;28;19925;-53
2022/06/21 12:19:28;;;;;;;;;;;;;;;-147.11;100.00;61570.13;4993188;28;19922;-52
2022/06/21 12:22:01;;;;;;;;;;;;;;;-147.11;100.00;61570.13;4993602;28;19918;-50
2022/06/21 12:24:29;;;;;;;;;;;;;;;-147.11;100.00;61570.13;4989218;28;19924;-51
2022/06/21 12:26:55;;;;;;;;;;;;;;;-147.11;100.00;61570.13;4992633;28;19980;-50
2022/06/21 12:29:21;;;;;;;;;;;;;;;-147.11;100.00;61570.13;4984451;28;19925;-51
2022/06/21 12:31:48;;;;;;;;;;;;;;;-147.11;100.00;61570.13;4994661;28;20004;-51
2022/06/21 12:34:26;;;;;;;;;;;;;;;-147.11;100.00;61570.13;4987815;28;20005;-54
2022/06/21 12:36:55;;;;;;;;;;;;;;;-147.11;100.00;61570.13;4987953;28;19918;-52
2022/06/21 12:39:23;;;;;;;;;;;;;;;-147.11;100.00;61570.13;4989339;28;19918;-53
2022/06/21 12:41:52;;;;;;;;;;;;;;;-147.11;100.00;61570.13;4987609;28;20022;-53